Time;durP1;ratioP1;P1;durP2;ratioP2;P2;SDS_P1;SDS_P2;PMS_P1;PMS_P2;Temp;Humidity;BMP_temperature;BMP_pressure;BME280_temperature;BME280_humidity;BME280_pressure;Samples;Min_cycle;Max_cycle;Signal;HPM_P1;HPM_P2
2021/11/04 00:01:43;;;;;;;12.60;8.75;;;8.50;99.90;;;;;;5030857;28;20072;-75
2021/11/04 00:04:09;;;;;;;10.77;8.15;;;8.40;99.90;;;;;;5031119;28;20087;-75
2021/11/04 00:06:35;;;;;;;11.93;8.30;;;8.40;99.90;;;;;;5030658;28;20128;-75
2021/11/04 00:09:00;;;;;;;11.52;8.02;;;8.40;99.90;;;;;;5032716;28;20025;-74
2021/11/04 00:11:26;;;;;;;11.88;8.65;;;8.50;99.90;;;;;;5032087;28;20518;-74
2021/11/04 00:13:52;;;;;;;13.25;8.68;;;8.50;99.90;;;;;;5030156;28;20040;-74
2021/11/04 00:16:18;;;;;;;12.77;8.57;;;8.50;99.90;;;;;;5031611;28;20030;-74
2021/11/04 00:18:43;;;;;;;11.68;8.23;;;8.40;99.90;;;;;;5028560;28;20032;-74
2021/11/04 00:21:09;;;;;;;13.52;9.07;;;8.40;99.90;;;;;;5031760;28;20126;-74
2021/11/04 00:23:35;;;;;;;11.25;8.07;;;8.50;99.90;;;;;;5031642;28;20031;-74
2021/11/04 00:26:02;;;;;;;16.65;9.70;;;8.40;99.90;;;;;;5030338;28;20026;-74
2021/11/04 00:28:27;;;;;;;12.60;8.05;;;8.50;99.90;;;;;;5030395;28;20025;-74
2021/11/04 00:30:53;;;;;;;11.50;8.15;;;8.50;99.90;;;;;;5028659;28;20037;-74
2021/11/04 00:33:19;;;;;;;11.18;8.65;;;8.50;99.90;;;;;;5029226;28;20030;-74
2021/11/04 00:35:44;;;;;;;10.90;8.13;;;8.50;99.90;;;;;;5027859;28;20112;-74
2021/11/04 00:38:10;;;;;;;13.05;8.80;;;8.50;99.90;;;;;;5025122;28;20025;-75
2021/11/04 00:40:36;;;;;;;11.32;7.88;;;8.50;99.90;;;;;;5030143;28;20071;-75
2021/11/04 00:43:02;;;;;;;11.45;8.48;;;8.50;99.90;;;;;;5028618;28;20488;-74
2021/11/04 00:45:28;;;;;;;11.82;8.27;;;8.50;99.90;;;;;;5030649;28;20032;-74
2021/11/04 00:47:54;;;;;;;13.60;8.23;;;8.50;99.90;;;;;;5031416;28;20034;-74
2021/11/04 00:50:21;;;;;;;10.65;8.10;;;8.50;99.90;;;;;;5030567;28;20053;-74
2021/11/04 00:52:47;;;;;;;10.88;8.60;;;8.60;99.90;;;;;;5029756;28;20030;-74
2021/11/04 00:55:13;;;;;;;10.38;8.00;;;8.60;99.90;;;;;;5028790;28;20086;-74
2021/11/04 00:57:39;;;;;;;10.50;7.40;;;8.60;99.90;;;;;;5029809;28;20053;-74
2021/11/04 01:00:09;;;;;;;13.15;8.90;;;8.60;99.90;;;;;;5030051;28;20488;-74
2021/11/04 01:02:34;;;;;;;9.88;7.57;;;8.70;99.90;;;;;;5030095;28;20504;-74
2021/11/04 01:05:00;;;;;;;9.82;7.70;;;8.70;99.90;;;;;;5029147;28;20030;-74
2021/11/04 01:07:26;;;;;;;10.80;7.97;;;8.70;99.90;;;;;;5030217;28;20029;-74
2021/11/04 01:09:51;;;;;;;11.27;8.35;;;8.70;99.90;;;;;;5029808;28;20039;-74
2021/11/04 01:12:17;;;;;;;10.73;7.22;;;8.60;99.90;;;;;;5030082;28;20144;-74
2021/11/04 01:14:43;;;;;;;9.50;7.80;;;8.70;99.90;;;;;;5033402;28;20049;-74
2021/11/04 01:17:09;;;;;;;11.30;8.20;;;8.70;99.90;;;;;;5022200;28;20041;-74
2021/11/04 01:19:35;;;;;;;11.15;8.13;;;8.70;99.90;;;;;;5026170;28;20096;-74
2021/11/04 01:22:01;;;;;;;11.20;8.10;;;8.60;99.90;;;;;;5028019;28;20431;-74
2021/11/04 01:24:26;;;;;;;11.95;8.05;;;8.60;99.90;;;;;;5027093;28;20481;-74
2021/11/04 01:26:55;;;;;;;8.80;7.13;;;8.60;99.90;;;;;;5031357;28;20029;-74
2021/11/04 01:29:20;;;;;;;10.57;8.13;;;8.60;99.90;;;;;;5029974;28;20048;-74
2021/11/04 01:31:46;;;;;;;11.52;7.90;;;8.60;99.90;;;;;;5029359;28;20052;-74
2021/11/04 01:34:12;;;;;;;9.30;7.43;;;8.60;99.90;;;;;;5028162;28;20065;-74
2021/11/04 01:36:38;;;;;;;9.80;6.70;;;8.60;99.90;;;;;;5029078;28;20049;-75
2021/11/04 01:39:04;;;;;;;11.38;7.60;;;8.60;99.90;;;;;;5030596;28;20040;-74
2021/11/04 01:41:30;;;;;;;10.98;7.93;;;8.60;99.90;;;;;;5030684;28;20025;-75
2021/11/04 01:43:56;;;;;;;10.10;7.82;;;8.70;99.90;;;;;;5027491;28;20128;-74
2021/11/04 01:46:22;;;;;;;9.38;7.00;;;8.60;99.90;;;;;;5028314;28;20025;-74
2021/11/04 01:48:49;;;;;;;10.43;7.75;;;8.60;99.90;;;;;;5028370;28;20072;-74
2021/11/04 01:51:16;;;;;;;10.95;7.80;;;8.70;99.90;;;;;;5029561;28;20053;-74
2021/11/04 01:53:42;;;;;;;8.88;6.82;;;8.70;99.90;;;;;;5031349;28;20499;-74
2021/11/04 01:56:07;;;;;;;10.90;7.88;;;8.70;99.90;;;;;;5027522;28;20030;-74
2021/11/04 01:58:33;;;;;;;13.32;8.70;;;8.70;99.90;;;;;;5026366;28;20492;-74
2021/11/04 02:00:59;;;;;;;11.60;7.53;;;8.70;99.90;;;;;;5024942;28;20021;-74
2021/11/04 02:03:25;;;;;;;9.40;7.35;;;8.70;99.90;;;;;;5026248;28;20476;-74
2021/11/04 02:06:27;;;;;;;11.07;7.65;;;8.70;99.90;;;;;;5031376;28;20032;-74
2021/11/04 02:09:07;;;;;;;11.25;7.38;;;8.70;99.90;;;;;;5027894;28;20083;-74
2021/11/04 02:11:48;;;;;;;9.57;7.60;;;8.70;99.90;;;;;;5029936;28;20682;-74
2021/11/04 02:14:16;;;;;;;;;;;8.70;99.90;;;;;;5028363;28;20033;-74
2021/11/04 02:16:43;;;;;;;11.52;8.32;;;8.70;99.90;;;;;;5028212;28;19924;-74
2021/11/04 02:19:30;;;;;;;9.38;6.40;;;8.70;99.90;;;;;;5023652;28;20052;-74
2021/11/04 02:21:59;;;;;;;10.13;7.82;;;8.70;99.90;;;;;;5017262;28;20041;-74
2021/11/04 02:24:40;;;;;;;9.82;7.38;;;8.70;99.90;;;;;;5021104;28;20091;-75
2021/11/04 02:27:07;;;;;;;;;;;8.70;99.90;;;;;;5028375;28;20061;-74
2021/11/04 02:29:34;;;;;;;8.68;6.65;;;8.70;99.90;;;;;;5026135;28;19964;-74
2021/11/04 02:32:00;;;;;;;9.98;7.32;;;8.70;99.90;;;;;;5021690;28;20426;-74
2021/11/04 02:34:28;;;;;;;12.02;7.25;;;8.70;99.90;;;;;;5027703;28;20154;-74
2021/11/04 02:36:55;;;;;;;10.32;6.95;;;8.70;99.90;;;;;;5025664;28;20029;-74
2021/11/04 02:39:22;;;;;;;15.55;7.32;;;8.70;99.90;;;;;;5025423;28;20032;-74
2021/11/04 02:41:47;;;;;;;7.93;6.22;;;8.70;99.90;;;;;;5027890;28;20433;-74
2021/11/04 02:44:13;;;;;;;9.20;6.15;;;8.70;99.90;;;;;;5025791;28;20116;-74
2021/11/04 02:46:40;;;;;;;11.45;7.68;;;8.70;99.90;;;;;;5025425;28;20079;-74
2021/11/04 02:49:06;;;;;;;9.93;6.95;;;8.70;99.90;;;;;;5026058;28;20033;-74
2021/11/04 02:51:35;;;;;;;8.52;7.05;;;8.70;99.90;;;;;;5027503;28;20103;-74
2021/11/04 02:54:01;;;;;;;10.77;6.82;;;8.60;99.90;;;;;;5017230;28;20396;-74
2021/11/04 02:56:49;;;;;;;9.82;6.85;;;8.60;99.90;;;;;;5027354;28;20025;-74
2021/11/04 02:59:16;;;;;;;9.93;6.75;;;8.60;99.90;;;;;;5024447;28;20025;-74
2021/11/04 03:01:44;;;;;;;10.27;7.45;;;8.60;99.90;;;;;;5029649;28;20017;-74
2021/11/04 03:04:11;;;;;;;11.13;7.47;;;8.60;99.90;;;;;;5027370;28;20143;-74
2021/11/04 03:06:37;;;;;;;10.10;7.25;;;8.60;99.90;;;;;;5028956;28;20026;-74
2021/11/04 03:09:03;;;;;;;10.20;6.82;;;8.60;99.90;;;;;;5030022;28;20056;-74
2021/11/04 03:11:29;;;;;;;10.15;7.35;;;8.50;99.90;;;;;;5026748;28;20037;-74
2021/11/04 03:13:56;;;;;;;9.82;7.00;;;8.50;99.90;;;;;;5024938;28;20538;-74
2021/11/04 03:16:23;;;;;;;8.80;6.53;;;8.50;99.90;;;;;;5028084;28;20037;-75
2021/11/04 03:18:50;;;;;;;10.48;7.35;;;8.60;99.90;;;;;;5027417;28;20033;-75
2021/11/04 03:21:17;;;;;;;9.73;6.78;;;8.50;99.90;;;;;;5027384;28;20045;-74
2021/11/04 03:23:43;;;;;;;10.32;7.28;;;8.60;99.90;;;;;;5028258;28;20056;-75
2021/11/04 03:26:10;;;;;;;10.30;6.93;;;8.60;99.90;;;;;;5027251;28;20065;-74
2021/11/04 03:28:36;;;;;;;9.13;6.72;;;8.60;99.90;;;;;;5026850;28;20095;-75
2021/11/04 03:31:05;;;;;;;10.32;7.32;;;8.60;99.90;;;;;;5026053;28;20033;-74
2021/11/04 03:33:31;;;;;;;12.32;7.25;;;8.60;99.90;;;;;;5019838;28;20030;-75
2021/11/04 03:35:59;;;;;;;11.48;7.78;;;8.60;99.90;;;;;;5029664;28;20111;-73
2021/11/04 03:38:27;;;;;;;14.27;7.78;;;8.60;99.90;;;;;;5030171;28;20013;-73
2021/11/04 03:40:57;;;;;;;10.13;6.78;;;8.60;99.90;;;;;;5028021;28;20461;-73
2021/11/04 03:43:25;;;;;;;9.25;6.68;;;8.60;99.90;;;;;;5032210;28;20033;-73
2021/11/04 03:45:50;;;;;;;10.30;7.05;;;8.50;99.90;;;;;;5029448;28;20041;-73
2021/11/04 03:48:17;;;;;;;8.15;6.93;;;8.60;99.90;;;;;;5030180;28;20071;-74
2021/11/04 03:50:43;;;;;;;8.40;6.35;;;8.60;99.90;;;;;;5034686;28;20042;-74
2021/11/04 03:53:10;;;;;;;10.02;6.97;;;8.60;99.90;;;;;;5030956;28;20183;-73
2021/11/04 03:55:36;;;;;;;10.70;7.28;;;8.50;99.90;;;;;;5032062;28;20420;-73
2021/11/04 03:58:03;;;;;;;9.15;7.10;;;8.50;99.90;;;;;;5029912;28;20033;-74
2021/11/04 04:00:29;;;;;;;9.93;7.03;;;8.50;99.90;;;;;;5031402;28;20041;-73
2021/11/04 04:02:55;;;;;;;12.75;7.10;;;8.40;99.90;;;;;;5027327;28;20025;-73
2021/11/04 04:05:32;;;;;;;8.50;6.63;;;8.40;99.90;;;;;;5031498;28;20400;-75
2021/11/04 04:07:58;;;;;;;8.95;7.07;;;8.40;99.90;;;;;;5031174;28;20507;-72
2021/11/04 04:10:24;;;;;;;9.45;6.82;;;8.40;99.90;;;;;;5032989;28;20033;-72
2021/11/04 04:12:51;;;;;;;10.60;6.80;;;8.40;99.90;;;;;;5029700;28;20099;-72
2021/11/04 04:15:17;;;;;;;11.05;7.10;;;8.40;99.90;;;;;;5031005;28;20069;-73
2021/11/04 04:17:42;;;;;;;9.68;7.38;;;8.40;99.90;;;;;;5032543;28;20029;-73
2021/11/04 04:20:09;;;;;;;11.02;7.40;;;8.40;99.90;;;;;;5029417;28;20302;-73
2021/11/04 04:22:35;;;;;;;9.60;6.78;;;8.50;99.90;;;;;;5029180;28;20021;-72
2021/11/04 04:25:02;;;;;;;9.85;7.22;;;8.40;99.90;;;;;;5030311;28;20112;-73
2021/11/04 04:27:27;;;;;;;10.98;6.57;;;8.40;99.90;;;;;;5027708;28;20030;-73
2021/11/04 04:29:53;;;;;;;10.25;7.20;;;8.40;99.90;;;;;;5028183;28;20034;-73
2021/11/04 04:32:18;;;;;;;9.13;7.20;;;8.40;99.90;;;;;;5029531;28;20108;-72
2021/11/04 04:34:44;;;;;;;9.50;6.97;;;8.40;99.90;;;;;;5028568;28;20026;-73
2021/11/04 04:37:10;;;;;;;11.27;7.72;;;8.40;99.90;;;;;;5023558;28;20061;-73
2021/11/04 04:39:37;;;;;;;8.93;6.35;;;8.40;99.90;;;;;;5025293;28;20042;-73
2021/11/04 04:42:04;;;;;;;10.55;7.57;;;8.40;99.90;;;;;;5029134;28;20029;-73
2021/11/04 04:44:29;;;;;;;8.93;6.68;;;8.30;99.90;;;;;;5030275;28;20049;-73
2021/11/04 04:46:56;;;;;;;10.05;6.50;;;8.40;99.90;;;;;;5027643;28;20413;-73
2021/11/04 04:49:22;;;;;;;10.50;7.20;;;8.40;99.90;;;;;;5027124;28;20503;-73
2021/11/04 04:51:48;;;;;;;11.48;7.57;;;8.40;99.90;;;;;;5025287;28;20041;-73
2021/11/04 04:54:13;;;;;;;9.40;6.55;;;8.40;99.90;;;;;;5027703;28;20389;-73
2021/11/04 04:56:39;;;;;;;11.02;6.90;;;8.40;99.90;;;;;;5033221;28;20045;-73
2021/11/04 04:59:05;;;;;;;9.82;7.32;;;8.30;99.90;;;;;;5028063;28;20068;-72
2021/11/04 05:01:31;;;;;;;11.85;7.15;;;8.30;99.90;;;;;;5027819;28;20047;-74
2021/11/04 05:03:56;;;;;;;10.93;6.72;;;8.30;99.90;;;;;;5030204;28;20061;-74
2021/11/04 05:06:22;;;;;;;11.15;7.35;;;8.30;99.90;;;;;;5028174;28;20030;-72
2021/11/04 05:08:48;;;;;;;10.80;7.03;;;8.30;99.90;;;;;;5032106;28;20029;-75
2021/11/04 05:11:14;;;;;;;13.60;7.68;;;8.20;99.90;;;;;;5022628;28;20021;-75
2021/11/04 05:13:39;;;;;;;11.25;7.80;;;8.30;99.90;;;;;;5024735;28;20029;-73
2021/11/04 05:16:05;;;;;;;9.10;6.72;;;8.30;99.90;;;;;;5027395;28;20419;-73
2021/11/04 05:18:31;;;;;;;13.23;7.50;;;8.30;99.90;;;;;;5026626;28;20026;-75
2021/11/04 05:20:57;;;;;;;10.35;7.57;;;8.30;99.90;;;;;;5026484;28;20025;-73
2021/11/04 05:23:22;;;;;;;11.32;7.90;;;8.30;99.90;;;;;;5028642;28;20551;-72
2021/11/04 05:25:48;;;;;;;15.02;8.45;;;8.30;99.90;;;;;;5030550;28;20618;-73
2021/11/04 05:28:14;;;;;;;13.43;8.15;;;8.30;99.90;;;;;;5028044;28;20021;-72
2021/11/04 05:30:41;;;;;;;10.63;7.13;;;8.30;99.90;;;;;;5028175;28;20096;-72
2021/11/04 05:33:06;;;;;;;10.32;7.53;;;8.30;99.90;;;;;;5029218;28;20022;-72
2021/11/04 05:35:32;;;;;;;12.63;8.45;;;8.30;99.90;;;;;;5029772;28;20036;-72
2021/11/04 05:37:58;;;;;;;11.48;7.85;;;8.30;99.90;;;;;;5026223;28;20047;-73
2021/11/04 05:40:23;;;;;;;11.48;7.05;;;8.30;99.90;;;;;;5026109;28;20358;-74
2021/11/04 05:42:50;;;;;;;11.68;7.60;;;8.30;99.90;;;;;;5028620;28;20026;-73
2021/11/04 05:45:15;;;;;;;15.70;7.95;;;8.30;99.90;;;;;;5028135;28;20096;-74
2021/11/04 05:47:41;;;;;;;10.57;6.97;;;8.30;99.90;;;;;;5031607;28;20504;-73
2021/11/04 05:50:07;;;;;;;11.15;7.53;;;8.30;99.90;;;;;;5025770;28;20036;-73
2021/11/04 05:52:33;;;;;;;12.70;7.18;;;8.30;99.90;;;;;;5027399;28;20388;-73
2021/11/04 05:54:59;;;;;;;11.15;7.60;;;8.30;99.90;;;;;;5025467;28;20453;-73
2021/11/04 05:57:26;;;;;;;10.63;6.60;;;8.30;99.90;;;;;;5026101;28;20105;-73
2021/11/04 05:59:52;;;;;;;10.27;6.88;;;8.30;99.90;;;;;;5028034;28;20104;-73
2021/11/04 06:02:18;;;;;;;11.48;7.30;;;8.30;99.90;;;;;;5027378;28;20120;-72
2021/11/04 06:04:45;;;;;;;10.25;7.13;;;8.30;99.90;;;;;;5026126;28;20029;-72
2021/11/04 06:07:12;;;;;;;14.02;8.35;;;8.20;99.90;;;;;;5025265;28;20021;-73
2021/11/04 06:09:38;;;;;;;9.93;6.80;;;8.20;99.90;;;;;;5020724;28;20056;-73
2021/11/04 06:12:04;;;;;;;8.70;6.57;;;8.30;99.90;;;;;;5023510;28;20022;-73
2021/11/04 06:14:29;;;;;;;10.88;7.53;;;8.30;99.90;;;;;;5028060;28;20044;-73
2021/11/04 06:16:55;;;;;;;9.88;7.28;;;8.30;99.90;;;;;;5025968;28;20030;-72
2021/11/04 06:19:21;;;;;;;10.23;7.15;;;8.30;99.90;;;;;;5028459;28;20075;-75
2021/11/04 06:21:47;;;;;;;10.48;6.45;;;8.40;99.90;;;;;;5025767;28;20029;-73
2021/11/04 06:24:13;;;;;;;11.45;7.03;;;8.40;99.90;;;;;;5025451;28;20107;-73
2021/11/04 06:26:38;;;;;;;11.70;7.05;;;8.40;99.90;;;;;;5030438;28;20034;-75
2021/11/04 06:29:04;;;;;;;9.98;7.18;;;8.40;99.90;;;;;;5027009;28;20028;-74
2021/11/04 06:31:30;;;;;;;10.25;7.03;;;8.50;99.90;;;;;;5025063;28;20080;-75
2021/11/04 06:33:56;;;;;;;10.00;6.28;;;8.50;99.90;;;;;;5024747;28;20087;-75
2021/11/04 06:36:23;;;;;;;9.23;6.55;;;8.50;99.90;;;;;;5025738;28;20499;-73
2021/11/04 06:38:52;;;;;;;10.75;5.68;;;8.50;99.90;;;;;;5020218;28;20121;-75
2021/11/04 06:41:18;;;;;;;10.10;5.80;;;8.50;99.90;;;;;;5023936;28;20022;-73
2021/11/04 06:43:44;;;;;;;8.52;5.97;;;8.60;99.90;;;;;;5029012;28;20025;-74
2021/11/04 06:46:12;;;;;;;8.70;5.93;;;8.60;99.90;;;;;;5026900;28;20036;-74
2021/11/04 06:48:44;;;;;;;11.07;6.45;;;8.70;99.90;;;;;;5024409;28;20033;-73
2021/11/04 06:51:13;;;;;;;9.93;6.75;;;8.70;99.90;;;;;;5028858;28;20129;-73
2021/11/04 06:53:44;;;;;;;10.52;5.95;;;8.70;99.90;;;;;;5025495;28;20471;-73
2021/11/04 06:56:11;;;;;;;7.78;5.38;;;8.70;99.90;;;;;;5021895;28;20034;-73
2021/11/04 06:58:38;;;;;;;7.80;5.80;;;8.80;99.90;;;;;;5025481;28;20113;-73
2021/11/04 07:01:14;;;;;;;8.27;5.38;;;8.80;99.90;;;;;;5020214;28;20091;-74
2021/11/04 07:03:50;;;;;;;14.73;6.13;;;8.90;99.90;;;;;;5028603;28;20033;-73
2021/11/04 07:06:29;;;;;;;10.63;5.22;;;9.00;99.90;;;;;;5025545;28;20029;-74
2021/11/04 07:08:57;;;;;;;10.55;6.00;;;9.00;99.90;;;;;;5026052;28;20021;-74
2021/11/04 07:11:24;;;;;;;8.45;5.53;;;9.10;99.90;;;;;;5028100;28;20029;-73
2021/11/04 07:13:51;;;;;;;9.70;5.18;;;9.10;99.90;;;;;;5026954;28;20017;-74
2021/11/04 07:16:21;;;;;;;8.40;5.78;;;9.20;99.90;;;;;;5030559;28;20037;-74
2021/11/04 07:18:48;;;;;;;8.68;5.15;;;9.20;99.90;;;;;;5031822;28;20026;-73
2021/11/04 07:21:22;;;;;;;9.63;5.47;;;9.30;99.90;;;;;;5033349;28;20443;-73
2021/11/04 07:23:58;;;;;;;9.95;5.78;;;9.40;99.90;;;;;;5035751;28;20022;-74
2021/11/04 07:26:40;;;;;;;10.93;4.80;;;9.50;99.90;;;;;;5031804;28;20040;-74
2021/11/04 07:29:09;;;;;;;10.48;5.72;;;9.50;99.90;;;;;;5025020;28;20033;-74
2021/11/04 07:31:38;;;;;;;7.55;5.15;;;9.50;99.90;;;;;;5019793;28;20108;-74
2021/11/04 07:34:07;;;;;;;11.18;5.70;;;9.60;99.90;;;;;;5020397;28;20025;-74
2021/11/04 07:36:35;;;;;;;8.10;4.93;;;9.60;99.90;;;;;;5024720;28;20124;-73
2021/11/04 07:39:03;;;;;;;10.13;5.43;;;9.60;99.90;;;;;;5033279;28;20029;-73
2021/11/04 07:41:33;;;;;;;9.52;5.13;;;9.70;99.90;;;;;;5033524;28;20492;-73
2021/11/04 07:43:59;;;;;;;10.75;5.40;;;9.70;99.90;;;;;;5033295;28;20560;-73
2021/11/04 07:46:27;;;;;;;9.10;5.15;;;9.70;99.90;;;;;;5031094;28;20025;-73
2021/11/04 07:48:52;;;;;;;10.15;4.65;;;9.70;99.90;;;;;;5030606;28;20025;-73
2021/11/04 07:51:18;;;;;;;6.72;4.72;;;9.80;99.90;;;;;;5014542;28;20050;-73
2021/11/04 07:53:44;;;;;;;8.52;5.43;;;9.90;99.90;;;;;;5026029;28;20073;-74
2021/11/04 07:56:11;;;;;;;7.18;4.88;;;9.90;99.90;;;;;;5017754;28;20038;-73
2021/11/04 07:58:37;;;;;;;7.53;4.72;;;10.00;99.90;;;;;;5027028;28;20030;-74
2021/11/04 08:01:04;;;;;;;8.20;5.32;;;10.10;99.90;;;;;;5027147;28;20032;-74
2021/11/04 08:03:30;;;;;;;9.50;4.88;;;10.20;99.90;;;;;;5021744;28;20127;-73
2021/11/04 08:05:56;;;;;;;6.40;4.63;;;10.30;99.90;;;;;;5029172;28;20828;-74
2021/11/04 08:08:21;;;;;;;7.43;4.25;;;10.30;99.90;;;;;;5029422;28;20061;-74
2021/11/04 08:10:50;;;;;;;12.35;4.65;;;10.40;99.90;;;;;;5020254;28;20033;-74
2021/11/04 08:13:16;;;;;;;8.45;4.20;;;10.50;99.90;;;;;;5028355;28;20125;-74
2021/11/04 08:15:42;;;;;;;5.47;4.07;;;10.50;99.90;;;;;;5023145;28;20452;-74
2021/11/04 08:18:09;;;;;;;7.75;4.10;;;10.60;99.90;;;;;;5024050;28;20021;-74
2021/11/04 08:20:35;;;;;;;7.07;4.47;;;10.60;99.90;;;;;;5031153;28;21327;-74
2021/11/04 08:23:02;;;;;;;6.18;4.07;;;10.70;99.90;;;;;;5021562;28;20044;-74
2021/11/04 08:25:28;;;;;;;5.72;4.10;;;10.70;99.90;;;;;;5021778;28;20441;-74
2021/11/04 08:27:54;;;;;;;8.18;4.65;;;10.80;99.90;;;;;;5030169;28;20056;-74
2021/11/04 08:30:21;;;;;;;5.40;3.95;;;10.80;99.90;;;;;;5020562;28;20049;-74
2021/11/04 08:32:47;;;;;;;8.80;4.05;;;10.90;99.90;;;;;;5025964;28;20120;-74
2021/11/04 08:35:13;;;;;;;7.35;4.00;;;10.90;99.90;;;;;;5015442;28;20076;-74
2021/11/04 08:37:40;;;;;;;8.77;4.43;;;10.90;99.90;;;;;;5024491;28;20064;-74
2021/11/04 08:40:07;;;;;;;7.43;4.75;;;11.00;99.90;;;;;;5021142;28;20029;-74
2021/11/04 08:42:34;;;;;;;7.35;4.57;;;11.00;99.90;;;;;;5019320;28;20468;-74
2021/11/04 08:44:59;;;;;;;8.90;4.65;;;11.10;99.90;;;;;;5027252;28;20033;-74
2021/11/04 08:47:29;;;;;;;10.63;4.80;;;11.10;99.90;;;;;;5027154;28;20029;-74
2021/11/04 08:49:55;;;;;;;6.43;3.80;;;11.20;99.90;;;;;;5020478;28;20022;-74
2021/11/04 08:52:26;;;;;;;7.65;4.43;;;11.20;99.90;;;;;;5023303;28;20083;-74
2021/11/04 08:54:52;;;;;;;;;;;11.30;99.90;;;;;;5017122;28;20029;-74
2021/11/04 08:57:18;;;;;;;9.45;4.43;;;11.40;99.90;;;;;;5021912;28;20403;-75
2021/11/04 08:59:44;;;;;;;7.50;4.30;;;11.50;99.90;;;;;;5018606;28;20106;-72
2021/11/04 09:02:14;;;;;;;7.55;3.97;;;11.50;99.90;;;;;;5018847;28;20034;-75
2021/11/04 09:04:43;;;;;;;5.53;3.58;;;11.50;99.90;;;;;;5018581;28;20395;-74
2021/11/04 09:07:14;;;;;;;8.63;4.10;;;11.50;99.90;;;;;;5017455;28;20364;-74
2021/11/04 09:09:39;;;;;;;7.10;4.25;;;11.60;99.90;;;;;;5012045;28;20507;-74
2021/11/04 09:12:06;;;;;;;6.10;4.28;;;11.60;99.90;;;;;;5024625;28;20026;-74
2021/11/04 09:14:32;;;;;;;8.80;4.43;;;11.60;99.90;;;;;;5024119;28;20080;-75
2021/11/04 09:16:57;;;;;;;9.18;5.60;;;11.60;99.90;;;;;;5021177;28;20492;-75
2021/11/04 09:19:23;;;;;;;9.85;5.20;;;11.60;99.90;;;;;;5023651;28;20515;-74
2021/11/04 09:21:49;;;;;;;8.57;4.63;;;11.60;99.90;;;;;;5015289;28;20041;-75
2021/11/04 09:24:15;;;;;;;7.72;4.38;;;11.60;99.90;;;;;;5014578;28;20057;-75
2021/11/04 09:26:41;;;;;;;6.85;3.83;;;11.70;99.90;;;;;;5017124;28;20034;-75
2021/11/04 09:29:07;;;;;;;6.97;4.32;;;11.60;99.90;;;;;;5023283;28;20438;-75
2021/11/04 09:31:33;;;;;;;6.30;4.10;;;11.70;99.90;;;;;;5023391;28;20029;-74
2021/11/04 09:33:59;;;;;;;6.65;3.53;;;11.70;99.90;;;;;;5024623;28;20091;-75
2021/11/04 09:36:28;;;;;;;5.93;3.63;;;11.80;99.90;;;;;;5018088;28;20041;-75
2021/11/04 09:38:56;;;;;;;7.18;4.15;;;11.80;99.90;;;;;;5013998;28;20030;-75
2021/11/04 09:41:21;;;;;;;9.57;4.63;;;11.90;99.90;;;;;;5017278;28;20392;-75
2021/11/04 09:43:47;;;;;;;8.82;3.90;;;11.90;99.90;;;;;;5015979;28;20033;-75
2021/11/04 09:46:13;;;;;;;7.18;4.50;;;12.00;99.90;;;;;;5012695;28;20573;-75
2021/11/04 09:48:39;;;;;;;5.88;4.13;;;12.10;99.90;;;;;;5015513;28;20390;-75
2021/11/04 09:51:06;;;;;;;6.40;3.95;;;12.20;99.90;;;;;;5017727;28;20072;-74
2021/11/04 09:53:32;;;;;;;7.88;4.05;;;12.30;99.90;;;;;;5022210;28;20049;-74
2021/11/04 09:56:03;;;;;;;10.50;4.80;;;12.40;99.90;;;;;;5017213;28;20037;-74
2021/11/04 09:58:29;;;;;;;;;;;12.50;99.90;;;;;;5017499;28;20018;-74
2021/11/04 10:00:55;;;;;;;6.30;4.22;;;12.50;99.90;;;;;;5013967;28;19909;-74
2021/11/04 10:03:21;;;;;;;5.10;3.92;;;12.60;99.90;;;;;;5023564;28;20087;-74
2021/11/04 10:05:53;;;;;;;7.70;4.00;;;12.60;99.90;;;;;;5024951;28;20589;-74
2021/11/04 10:08:35;;;;;;;8.82;4.65;;;12.60;99.90;;;;;;5020817;28;20139;-75
2021/11/04 10:11:10;;;;;;;9.48;4.32;;;12.70;99.90;;;;;;5024773;28;20123;-74
2021/11/04 10:13:36;;;;;;;8.75;4.18;;;12.60;99.90;;;;;;5022051;28;20169;-74
2021/11/04 10:16:02;;;;;;;7.70;4.60;;;12.60;99.90;;;;;;5021376;28;20111;-74
2021/11/04 10:18:28;;;;;;;7.90;4.93;;;12.70;99.90;;;;;;5025700;28;20030;-74
2021/11/04 10:20:53;;;;;;;9.30;4.82;;;12.70;99.90;;;;;;5014430;28;22191;-74
2021/11/04 10:23:20;;;;;;;12.25;5.53;;;12.70;99.90;;;;;;5014216;28;20076;-74
2021/11/04 10:25:47;;;;;;;7.15;4.30;;;12.70;99.90;;;;;;5018956;28;20053;-74
2021/11/04 10:28:24;;;;;;;17.10;5.00;;;12.70;99.90;;;;;;5017293;28;20053;-74
2021/11/04 10:30:50;;;;;;;10.35;4.60;;;12.90;99.90;;;;;;5013838;28;20052;-74
2021/11/04 10:33:26;;;;;;;10.90;5.10;;;12.90;99.90;;;;;;5020827;28;20061;-74
2021/11/04 10:35:58;;;;;;;8.63;5.07;;;13.00;99.90;;;;;;5017218;28;20037;-74
2021/11/04 10:38:38;;;;;;;7.32;4.60;;;13.10;99.90;;;;;;5016546;28;20026;-74
2021/11/04 10:41:09;;;;;;;9.05;5.53;;;13.20;99.90;;;;;;5019972;28;20137;-75
2021/11/04 10:43:37;;;;;;;8.55;5.20;;;13.20;99.90;;;;;;5021854;28;20029;-74
2021/11/04 10:46:11;;;;;;;12.40;4.97;;;13.30;99.90;;;;;;5020989;28;20017;-74
2021/11/04 10:48:39;;;;;;;7.15;4.80;;;13.30;99.90;;;;;;5022439;28;20125;-74
2021/11/04 10:51:06;;;;;;;11.02;5.10;;;13.40;99.90;;;;;;5017621;28;20073;-74
2021/11/04 10:53:32;;;;;;;8.48;4.80;;;13.40;99.90;;;;;;5018182;28;20030;-74
2021/11/04 10:56:19;;;;;;;8.43;5.38;;;13.40;99.90;;;;;;5021090;28;20045;-74
2021/11/04 10:58:53;;;;;;;10.10;5.80;;;13.40;99.90;;;;;;5020275;28;20040;-75
2021/11/04 11:01:31;;;;;;;10.10;6.22;;;13.40;99.90;;;;;;5022423;28;20559;-74
2021/11/04 11:04:04;;;;;;;11.15;5.95;;;13.50;99.90;;;;;;5018925;28;20025;-74
2021/11/04 11:06:32;;;;;;;6.18;4.43;;;13.60;99.90;;;;;;5018196;28;20038;-74
2021/11/04 11:09:00;;;;;;;13.43;5.78;;;13.50;99.90;;;;;;5021353;28;20025;-75
2021/11/04 11:11:26;;;;;;;9.07;5.35;;;13.50;99.90;;;;;;5016540;28;20068;-75
2021/11/04 11:13:52;;;;;;;8.00;5.65;;;13.50;99.90;;;;;;5021703;28;20086;-75
2021/11/04 11:16:18;;;;;;;10.02;5.88;;;13.50;99.90;;;;;;5023847;28;20046;-74
2021/11/04 11:18:44;;;;;;;13.15;6.88;;;13.40;99.90;;;;;;5017044;28;20532;-75
2021/11/04 11:21:10;;;;;;;10.88;5.90;;;13.50;99.90;;;;;;5019504;28;20492;-74
2021/11/04 11:23:37;;;;;;;7.85;5.30;;;13.40;99.90;;;;;;5023118;28;20408;-74
2021/11/04 11:26:05;;;;;;;12.55;6.50;;;13.40;99.90;;;;;;5019604;28;20038;-73
2021/11/04 11:28:35;;;;;;;10.02;6.30;;;13.40;99.90;;;;;;5016240;28;20072;-73
2021/11/04 11:31:13;;;;;;;12.07;5.90;;;13.40;99.90;;;;;;5014104;28;20508;-74
2021/11/04 11:33:40;;;;;;;14.52;6.40;;;13.40;99.90;;;;;;5019378;28;20033;-74
2021/11/04 11:36:19;;;;;;;11.85;6.03;;;13.40;99.90;;;;;;5017888;28;20049;-74
2021/11/04 11:39:03;;;;;;;11.25;6.22;;;13.50;99.90;;;;;;5019515;28;20485;-74
2021/11/04 11:42:08;;;;;;;9.95;6.32;;;13.50;99.90;;;;;;5019965;28;20026;-74
2021/11/04 11:44:44;;;;;;;10.63;6.65;;;13.60;99.90;;;;;;5014884;28;20050;-74
2021/11/04 11:47:18;;;;;;;12.32;6.32;;;13.60;99.90;;;;;;5021133;28;20037;-74
2021/11/04 11:49:46;;;;;;;12.30;6.88;;;13.70;99.90;;;;;;5021640;28;20029;-74
2021/11/04 11:52:46;;;;;;;10.77;6.57;;;13.80;99.90;;;;;;5022869;28;20049;-74
2021/11/04 11:55:17;;;;;;;14.63;7.35;;;13.80;99.90;;;;;;5016161;28;20128;-74
2021/11/04 11:58:30;;;;;;;11.35;6.38;;;13.90;99.90;;;;;;5018653;28;20030;-75
2021/11/04 12:00:56;;;;;;;12.65;7.28;;;13.90;99.90;;;;;;5014684;28;20109;-74
2021/11/04 12:03:38;;;;;;;13.70;6.80;;;13.90;99.90;;;;;;5013381;28;20033;-75
2021/11/04 12:06:25;;;;;;;10.75;7.28;;;13.80;99.90;;;;;;5022839;28;20030;-75
2021/11/04 12:08:59;;;;;;;10.93;6.18;;;13.80;99.90;;;;;;5030948;28;20033;-75
2021/11/04 12:11:37;;;;;;;13.98;7.25;;;13.80;99.90;;;;;;5025959;28;20452;-74
2021/11/04 12:14:33;;;;;;;14.10;7.55;;;13.80;99.90;;;;;;5019334;28;20029;-75
2021/11/04 12:17:03;;;;;;;13.73;6.82;;;13.90;99.90;;;;;;5014491;28;20111;-74
2021/11/04 12:19:48;;;;;;;10.98;7.10;;;13.80;99.90;;;;;;5019862;28;20033;-74
2021/11/04 12:22:16;;;;;;;11.57;7.07;;;13.90;99.90;;;;;;5014859;28;20021;-75
2021/11/04 12:24:53;;;;;;;13.63;6.78;;;13.80;99.90;;;;;;5019064;28;20062;-75
2021/11/04 12:27:21;;;;;;;11.48;6.38;;;13.90;99.90;;;;;;5026995;28;20052;-75
2021/11/04 12:29:51;;;;;;;11.63;7.30;;;13.90;99.90;;;;;;5019509;28;20053;-75
2021/11/04 12:32:22;;;;;;;14.10;6.68;;;13.90;99.90;;;;;;5017800;28;20072;-74
2021/11/04 12:34:59;;;;;;;16.55;7.95;;;13.90;99.90;;;;;;5022879;28;20069;-74
2021/11/04 12:37:30;;;;;;;9.55;6.05;;;13.90;99.90;;;;;;5018122;28;20022;-74
2021/11/04 12:39:57;;;;;;;10.98;6.55;;;13.80;99.90;;;;;;5019335;28;20033;-74
2021/11/04 12:42:23;;;;;;;10.52;6.75;;;13.90;99.90;;;;;;5012492;28;20458;-75
2021/11/04 12:44:49;;;;;;;11.18;6.55;;;13.90;99.90;;;;;;5020159;28;20549;-74
2021/11/04 12:47:18;;;;;;;12.38;7.05;;;13.90;99.90;;;;;;5021066;28;20034;-74
2021/11/04 12:49:45;;;;;;;16.10;6.88;;;13.90;99.90;;;;;;5024489;28;20037;-75
2021/11/04 12:52:11;;;;;;;10.88;6.95;;;13.80;99.90;;;;;;5021009;28;20408;-75
2021/11/04 12:54:43;;;;;;;10.45;6.63;;;13.90;99.90;;;;;;5022223;28;20033;-75